Abel, Alabama
Current Conditions -  °F | °C
As of 8:53 AM on Wednesday 22 Oct 2014 (Local Time) from KANB Reporting Station
Clear Clear  
Wind Chill: 12°   Ceiling: Unl
Heat Index: 12°   Visibility: 10mi
Dew Point:   Wind: 14mph
Humidity: 64%   Direction: 30°NNE
Pressure: 30.15"   Gusts: NA
Location:  33.4483°N, 85.6826°W
Report Text: KANB 221353Z AUTO 03012KT 10SM CLR 12/05 A3015 RMK AO2 SLP211 T01170050
Loading
Personal Weather Stations






























Interactive Weather Map
Tropical Storm Tracking
New forecast layout! Learn more

10-Day Weather Forecast

Advertisements
Track Severe Weather on mobile